Marshfield, Vermont
Current Conditions -  °F | °C
As of 7:51 PM on Saturday 25 Oct 2014 (Local Time) from KMPV Reporting Station
Overcast Overcast  
Wind Chill: 50°   Ceiling: 4800
Heat Index: 50°   Visibility: 10mi
Dew Point: 45°   Wind: 3mph
Humidity: 83%   Direction: 220°SW
Pressure: 29.54"   Gusts: NA
Location:  44.35°N, 72.35°W
Report Text: KMPV 252351Z AUTO 22003KT 10SM OVC048 10/07 A2954 RMK AO2 RAE2259B30E44 SLP010 P0000 60001 T01000072 10144 20094 58020 $
Loading
Personal Weather Stations






























Interactive Weather Map
Tropical Storm Tracking
New forecast layout! Learn more

10-Day Weather Forecast

Advertisements
Track Severe Weather on mobile